Wheatley, Canada
Current Conditions -  °F | °C
As of 12:00 PM on Thursday 30 Oct 2014 (Local Time) from CYCK Reporting Station
Overcast Overcast  
Wind Chill: 43°   Ceiling: 2700
Heat Index: 46°   Visibility: 9mi
Dew Point: 36°   Wind: 7mph
Humidity: 66%   Direction: 280°W
Pressure: 30.13"   Gusts: NA
Location:  42.1°N, 82.45°W
Report Text: CYCK 301600Z AUTO 28006KT 220V310 9SM OVC027 08/02 A3013 RMK SLP208
Loading
Personal Weather Stations






























Interactive Weather Map
Tropical Storm Tracking
New forecast layout! Learn more

10-Day Weather Forecast

Advertisements
Track Severe Weather on mobile